Time;durP1;ratioP1;P1;durP2;ratioP2;P2;SDS_P1;SDS_P2;PMS_P1;PMS_P2;Temp;Humidity;BMP_temperature;BMP_pressure;BME280_temperature;BME280_humidity;BME280_pressure;Samples;Min_cycle;Max_cycle;Signal;HPM_P1;HPM_P2
2021/12/31 00:01:40;;;;;;;22.48;13.65;;;;;;;-4.78;74.40;100441.44;1745726;82;20956;-64
2021/12/31 00:04:06;;;;;;;24.12;15.03;;;;;;;-4.80;74.34;100445.77;1743554;80;21819;-64
2021/12/31 00:06:33;;;;;;;21.60;13.78;;;;;;;-4.81;74.38;100449.23;1731554;82;21000;-64
2021/12/31 00:09:00;;;;;;;21.42;14.53;;;;;;;-4.81;74.40;100437.20;1732588;81;20957;-64
2021/12/31 00:11:26;;;;;;;20.68;13.98;;;;;;;-4.81;74.42;100435.06;1745048;81;21005;-63
2021/12/31 00:13:53;;;;;;;21.73;14.23;;;;;;;-4.83;74.41;100429.91;1732027;81;21005;-63
2021/12/31 00:16:19;;;;;;;21.02;14.50;;;;;;;-4.85;74.43;100422.64;1732330;82;21796;-65
2021/12/31 00:18:46;;;;;;;23.60;14.65;;;;;;;-4.85;74.43;100428.23;1746247;80;21115;-64
2021/12/31 00:21:13;;;;;;;22.48;14.55;;;;;;;-4.85;74.47;100426.51;1732025;82;21068;-65
2021/12/31 00:23:42;;;;;;;23.98;14.68;;;;;;;-4.85;74.48;100425.22;1751375;80;21024;-64
2021/12/31 00:26:08;;;;;;;20.97;13.80;;;;;;;-4.86;74.47;100418.37;1748254;80;20961;-64
2021/12/31 00:28:35;;;;;;;25.40;14.78;;;;;;;-4.86;74.47;100420.09;1734734;80;21820;-65
2021/12/31 00:31:03;;;;;;;24.02;14.95;;;;;;;-4.86;74.49;100415.80;1755217;80;21012;-64
2021/12/31 00:33:30;;;;;;;22.22;14.85;;;;;;;-4.86;74.45;100419.66;1741244;80;20981;-65
2021/12/31 00:35:57;;;;;;;24.12;14.40;;;;;;;-4.89;74.41;100422.30;1711446;80;21013;-65
2021/12/31 00:38:23;;;;;;;22.10;14.23;;;;;;;-4.91;74.41;100413.75;1747142;80;21020;-64
2021/12/31 00:40:50;;;;;;;21.65;14.15;;;;;;;-4.92;74.40;100409.03;1729821;82;21828;-64
2021/12/31 00:43:18;;;;;;;22.52;14.13;;;;;;;-4.93;74.32;100408.59;1726506;82;21017;-65
2021/12/31 00:45:45;;;;;;;24.60;14.95;;;;;;;-4.97;74.23;100408.23;1748015;80;21182;-65
2021/12/31 00:48:12;;;;;;;21.87;14.53;;;;;;;-4.99;74.23;100411.72;1731245;80;21024;-64
2021/12/31 00:50:39;;;;;;;22.98;15.18;;;;;;;-5.00;74.23;100408.30;1736351;82;20953;-64
2021/12/31 00:53:06;;;;;;;23.55;14.30;;;;;;;-4.98;74.23;100401.83;1742847;80;22516;-64
2021/12/31 00:55:32;;;;;;;20.20;13.43;;;;;;;-5.00;74.18;100402.30;1769130;80;20948;-64
2021/12/31 00:57:59;;;;;;;21.07;14.33;;;;;;;-5.01;74.17;100406.59;1760043;79;20953;-63
2021/12/31 01:00:26;;;;;;;22.02;13.03;;;;;;;-5.02;74.13;100407.88;1745627;80;21091;-63
2021/12/31 01:02:54;;;;;;;22.35;14.33;;;;;;;-5.02;74.09;100402.33;1731480;80;21154;-65
2021/12/31 01:05:21;;;;;;;20.85;14.40;;;;;;;-5.04;74.07;100391.61;1733490;80;21876;-63
2021/12/31 01:07:47;;;;;;;21.87;14.03;;;;;;;-5.03;74.10;100392.02;1748245;80;20945;-63
2021/12/31 01:10:16;;;;;;;22.15;14.43;;;;;;;-5.06;74.04;100389.06;1735592;82;21033;-63
2021/12/31 01:12:44;;;;;;;24.95;15.03;;;;;;;-5.08;74.05;100379.23;1726850;80;21122;-63
2021/12/31 01:15:46;;;;;;;23.85;15.43;;;;;;;-5.06;74.05;100381.77;1733111;80;20964;-63
2021/12/31 01:20:21;;;;;;;22.20;14.55;;;;;;;-5.06;74.07;100380.48;1762055;80;21408;-65
2021/12/31 01:22:49;;;;;;;24.50;15.83;;;;;;;-5.04;74.10;100374.87;1762714;80;20966;-63
2021/12/31 01:25:15;;;;;;;24.37;15.43;;;;;;;-5.03;74.08;100370.97;1756103;80;21064;-63
2021/12/31 01:27:43;;;;;;;24.70;15.00;;;;;;;-5.02;74.00;100373.99;1726005;80;21028;-63
2021/12/31 01:30:13;;;;;;;23.87;14.73;;;;;;;-5.03;74.00;100369.69;1739199;80;21041;-63
2021/12/31 01:32:42;;;;;;;23.30;15.45;;;;;;;-5.04;74.01;100365.86;1735868;80;21004;-63
2021/12/31 01:35:10;;;;;;;20.25;14.60;;;;;;;-5.03;73.98;100357.25;1707238;82;20985;-63
2021/12/31 01:37:38;;;;;;;21.57;15.05;;;;;;;-5.03;73.98;100360.67;1743474;80;21385;-64
2021/12/31 01:40:06;;;;;;;25.82;15.43;;;;;;;-5.03;73.96;100361.96;1771105;80;21450;-63
2021/12/31 01:42:33;;;;;;;24.02;15.40;;;;;;;-5.02;73.95;100356.38;1724420;82;21826;-63
2021/12/31 01:45:15;;;;;;;23.87;14.78;;;;;;;-5.01;73.93;100356.81;1745527;80;20960;-63
2021/12/31 01:50:28;;;;;;;27.45;17.05;;;;;;;-5.01;73.93;100354.23;1728138;80;20996;-63
2021/12/31 01:52:55;;;;;;;26.02;18.40;;;;;;;-5.04;73.88;100352.54;1725784;82;21020;-63
2021/12/31 01:55:24;;;;;;;25.62;16.35;;;;;;;-5.05;73.90;100357.28;1721835;82;21840;-63
2021/12/31 01:57:51;;;;;;;25.77;17.05;;;;;;;-5.05;73.92;100359.00;1734715;80;20981;-63
2021/12/31 02:00:17;;;;;;;27.58;16.60;;;;;;;-5.04;73.92;100344.81;1728898;80;20961;-64
2021/12/31 02:02:46;;;;;;;25.75;16.23;;;;;;;-5.02;73.86;100349.94;1740103;81;21087;-63
2021/12/31 02:05:12;;;;;;;24.52;16.07;;;;;;;-5.02;73.79;100340.92;1720725;82;21051;-63
2021/12/31 02:07:41;;;;;;;24.95;16.37;;;;;;;-4.99;73.79;100347.33;1737790;80;20965;-63
2021/12/31 02:10:09;;;;;;;30.95;19.37;;;;;;;-4.99;73.78;100339.60;1728022;82;21001;-63
2021/12/31 02:12:40;;;;;;;24.65;16.10;;;;;;;-4.98;73.78;100324.56;1733422;80;21060;-63
2021/12/31 02:15:09;;;;;;;24.60;15.50;;;;;;;-4.97;73.79;100328.83;1738024;80;21383;-64
2021/12/31 02:17:36;;;;;;;25.12;16.12;;;;;;;-4.98;73.74;100325.84;1755872;80;21338;-64
2021/12/31 02:20:06;;;;;;;27.70;16.65;;;;;;;-5.01;73.70;100314.32;1729346;82;21837;-63
2021/12/31 02:22:38;;;;;;;23.25;16.15;;;;;;;-5.05;73.66;100314.78;1721724;82;21052;-63
2021/12/31 02:25:08;;;;;;;27.22;17.02;;;;;;;-5.05;73.64;100319.09;1731499;80;21016;-63
2021/12/31 02:27:39;;;;;;;28.77;17.85;;;;;;;-5.08;73.62;100310.14;1731735;80;21016;-64
2021/12/31 02:30:08;;;;;;;25.85;16.80;;;;;;;-5.12;73.62;100306.74;1743246;80;21523;-63
2021/12/31 02:32:36;;;;;;;29.85;17.50;;;;;;;-5.12;73.61;100295.59;1742636;80;21796;-64
2021/12/31 02:35:04;;;;;;;26.52;17.30;;;;;;;-5.14;73.57;100292.20;1730369;82;21087;-63
2021/12/31 02:37:32;;;;;;;27.60;18.15;;;;;;;-5.17;73.54;100288.40;1755811;80;21056;-63
2021/12/31 02:40:05;;;;;;;30.52;20.17;;;;;;;-5.20;73.58;100290.16;1739066;82;21371;-64
2021/12/31 02:42:33;;;;;;;29.77;18.85;;;;;;;-5.19;73.62;100296.16;1726868;82;21052;-64
2021/12/31 02:45:00;;;;;;;29.87;18.73;;;;;;;-5.21;73.61;100296.19;1727346;80;21832;-64
2021/12/31 02:47:26;;;;;;;32.17;19.35;;;;;;;-5.22;73.62;100321.93;1728853;80;21028;-64
2021/12/31 02:49:54;;;;;;;29.80;18.90;;;;;;;-5.20;73.66;100318.92;1737236;80;21024;-64
2021/12/31 02:52:20;;;;;;;30.72;18.37;;;;;;;-5.19;73.69;100303.88;1745931;80;21079;-64
2021/12/31 02:54:48;;;;;;;30.27;19.20;;;;;;;-5.18;73.69;100310.73;1765134;80;20991;-65
2021/12/31 02:57:16;;;;;;;29.67;19.07;;;;;;;-5.19;73.68;100302.16;1741615;80;21517;-65
2021/12/31 02:59:42;;;;;;;30.05;19.27;;;;;;;-5.17;73.70;100294.84;1745759;80;21458;-65
2021/12/31 03:02:09;;;;;;;29.10;19.05;;;;;;;-5.18;73.73;100292.70;1737389;80;20972;-65
2021/12/31 03:04:38;;;;;;;30.27;19.73;;;;;;;-5.19;73.76;100293.14;1730973;80;21016;-64
2021/12/31 03:07:07;;;;;;;30.17;18.92;;;;;;;-5.18;73.78;100281.11;1759370;80;21368;-65
2021/12/31 03:09:37;;;;;;;33.28;19.73;;;;;;;-5.17;73.82;100283.25;1742391;80;21824;-64
2021/12/31 03:12:04;;;;;;;28.90;18.77;;;;;;;-5.17;73.87;100274.23;1741450;80;21004;-65
2021/12/31 03:14:33;;;;;;;30.05;19.02;;;;;;;-5.16;73.93;100266.92;1733207;80;20962;-64
2021/12/31 03:16:59;;;;;;;32.03;20.00;;;;;;;-5.15;73.92;100266.05;1771087;80;20961;-65
2021/12/31 03:19:26;;;;;;;30.05;19.15;;;;;;;-5.15;73.94;100265.61;1719217;80;21063;-63
2021/12/31 03:21:53;;;;;;;30.68;19.57;;;;;;;-5.13;73.96;100256.56;1757034;80;21453;-63
2021/12/31 03:24:19;;;;;;;32.42;19.25;;;;;;;-5.13;74.00;100260.42;1742331;80;20873;-63
2021/12/31 03:26:46;;;;;;;32.15;19.45;;;;;;;-5.12;74.04;100259.55;1750039;80;21017;-63
2021/12/31 03:29:12;;;;;;;33.85;21.10;;;;;;;-5.12;74.04;100275.00;1759755;80;21066;-63
2021/12/31 03:31:38;;;;;;;30.90;18.05;;;;;;;-5.13;74.01;100280.58;1735295;80;20965;-63
2021/12/31 03:34:05;;;;;;;34.63;20.35;;;;;;;-5.16;74.06;100269.06;1735277;82;21833;-63
2021/12/31 03:36:32;;;;;;;32.53;19.20;;;;;;;-5.17;74.13;100275.09;1739119;80;21493;-63
2021/12/31 03:38:58;;;;;;;35.45;20.08;;;;;;;-5.16;74.18;100275.94;1722907;80;20980;-65
2021/12/31 03:41:26;;;;;;;31.45;17.67;;;;;;;-5.16;74.27;100270.34;1772821;80;21083;-64
2021/12/31 03:43:53;;;;;;;34.15;19.87;;;;;;;-5.17;74.31;100262.66;1776305;80;21052;-65
2021/12/31 03:46:20;;;;;;;33.63;20.05;;;;;;;-5.17;74.40;100265.23;1726602;80;21790;-64
2021/12/31 03:48:46;;;;;;;35.88;20.60;;;;;;;-5.16;74.44;100261.77;1738765;82;21036;-64
2021/12/31 03:51:13;;;;;;;35.63;20.15;;;;;;;-5.16;74.46;100255.34;1734419;80;21040;-64
2021/12/31 03:53:39;;;;;;;33.02;20.02;;;;;;;-5.14;74.48;100262.59;1737052;80;21008;-65
2021/12/31 03:56:06;;;;;;;33.05;19.92;;;;;;;-5.14;74.54;100261.30;1751567;80;20988;-64
2021/12/31 03:58:32;;;;;;;36.10;20.90;;;;;;;-5.14;74.56;100260.02;1766598;80;21787;-64
2021/12/31 04:00:59;;;;;;;32.95;20.70;;;;;;;-5.15;74.60;100260.45;1744155;80;20959;-64
2021/12/31 04:03:25;;;;;;;30.70;19.07;;;;;;;-5.15;74.63;100250.16;1775687;79;21449;-65
2021/12/31 04:05:53;;;;;;;33.70;19.15;;;;;;;-5.17;74.65;100254.93;1745809;80;21037;-64
2021/12/31 04:08:20;;;;;;;38.98;21.23;;;;;;;-5.19;74.71;100263.53;1739935;80;20941;-64
2021/12/31 04:10:47;;;;;;;33.42;19.95;;;;;;;-5.19;74.76;100266.55;1728480;80;22629;-63
2021/12/31 04:13:14;;;;;;;33.42;19.45;;;;;;;-5.20;74.83;100257.97;1767187;80;21359;-64
2021/12/31 04:15:40;;;;;;;31.42;18.35;;;;;;;-5.20;74.89;100259.70;1728318;80;20968;-64
2021/12/31 04:18:07;;;;;;;34.58;20.50;;;;;;;-5.19;74.92;100263.97;1766614;79;21041;-64
2021/12/31 04:20:41;;;;;;;31.42;19.85;;;;;;;-5.19;74.98;100256.25;1758857;80;20989;-65
2021/12/31 04:23:14;;;;;;;33.23;19.65;;;;;;;-5.17;75.02;100258.79;1732345;80;22792;-64
2021/12/31 04:25:38;;;;;;;31.93;20.05;;;;;;;-5.14;75.08;100257.44;1730457;82;20973;-64
2021/12/31 04:28:05;;;;;;;34.00;20.82;;;;;;;-5.11;75.08;100266.42;1750925;80;21061;-64
2021/12/31 04:30:32;;;;;;;32.83;20.12;;;;;;;-5.11;75.09;100256.97;1758455;81;21063;-64
2021/12/31 04:33:00;;;;;;;31.33;19.50;;;;;;;-5.10;75.14;100255.24;1766860;80;21096;-64
2021/12/31 04:35:27;;;;;;;33.78;20.37;;;;;;;-5.08;75.16;100250.91;1775863;80;21828;-64
2021/12/31 04:37:54;;;;;;;32.60;19.55;;;;;;;-5.07;75.20;100252.61;1747514;80;21479;-64
2021/12/31 04:40:20;;;;;;;32.95;20.65;;;;;;;-5.08;75.22;100244.03;1747158;81;21437;-64
2021/12/31 04:42:48;;;;;;;29.35;18.45;;;;;;;-5.08;75.21;100249.18;1768700;80;21359;-64
2021/12/31 04:45:15;;;;;;;31.90;19.67;;;;;;;-5.07;75.25;100248.30;1744042;80;21017;-64
2021/12/31 04:47:41;;;;;;;32.35;19.57;;;;;;;-5.05;75.27;100250.84;1759999;80;21834;-64
2021/12/31 04:50:09;;;;;;;35.08;21.57;;;;;;;-5.04;75.31;100254.67;1745600;80;20949;-63
2021/12/31 04:52:35;;;;;;;33.45;21.12;;;;;;;-5.02;75.32;100254.64;1740878;80;21000;-64
2021/12/31 04:55:04;;;;;;;36.73;20.72;;;;;;;-5.00;75.33;100242.61;1751563;80;21044;-64
2021/12/31 04:57:32;;;;;;;35.88;22.55;;;;;;;-4.99;75.35;100246.45;1755740;80;20945;-66
2021/12/31 04:59:58;;;;;;;32.65;20.72;;;;;;;-5.00;75.39;100242.17;1739909;80;21797;-63
2021/12/31 05:02:24;;;;;;;33.35;19.50;;;;;;;-5.00;75.44;100240.88;1776918;80;21028;-63
2021/12/31 05:04:51;;;;;;;34.67;18.95;;;;;;;-5.00;75.49;100251.63;1775880;79;20993;-67
2021/12/31 05:07:18;;;;;;;32.38;20.08;;;;;;;-5.01;75.54;100243.49;1760927;80;20972;-63
2021/12/31 05:09:45;;;;;;;36.20;20.75;;;;;;;-5.01;75.59;100242.20;1735567;82;20997;-63
2021/12/31 05:12:15;;;;;;;30.90;18.80;;;;;;;-5.00;75.66;100243.46;1743976;80;21877;-65
2021/12/31 05:14:40;;;;;;;33.13;19.82;;;;;;;-4.99;75.70;100236.58;1738388;80;21056;-64
2021/12/31 05:17:08;;;;;;;33.73;18.48;;;;;;;-4.98;75.72;100237.84;1750904;80;21390;-64
2021/12/31 05:19:35;;;;;;;34.15;20.35;;;;;;;-4.98;75.76;100233.13;1788516;80;20991;-64
2021/12/31 05:22:01;;;;;;;31.75;20.00;;;;;;;-4.97;75.80;100234.82;1762322;81;21067;-65
2021/12/31 05:24:28;;;;;;;31.48;19.67;;;;;;;-4.96;75.82;100230.92;1763227;81;21750;-64
2021/12/31 05:26:56;;;;;;;34.00;19.45;;;;;;;-4.94;75.85;100232.17;1745784;80;20989;-65
2021/12/31 05:29:22;;;;;;;33.18;19.50;;;;;;;-4.91;75.89;100228.28;1753346;80;21849;-64
2021/12/31 05:31:49;;;;;;;34.92;19.27;;;;;;;-4.90;75.92;100223.53;1750282;80;20997;-64
2021/12/31 05:34:15;;;;;;;33.58;20.48;;;;;;;-4.90;75.95;100222.25;1780939;78;20996;-64
2021/12/31 05:36:42;;;;;;;33.67;19.70;;;;;;;-4.92;75.96;100220.99;1736247;81;21993;-65
2021/12/31 05:39:10;;;;;;;32.98;19.27;;;;;;;-4.90;76.00;100220.52;1760125;81;20988;-64
2021/12/31 05:41:39;;;;;;;32.60;19.90;;;;;;;-4.89;76.02;100222.66;1789971;80;21095;-65
2021/12/31 05:44:05;;;;;;;34.20;20.72;;;;;;;-4.87;76.06;100223.91;1781099;80;21063;-64
2021/12/31 05:46:34;;;;;;;33.73;19.92;;;;;;;-4.86;76.10;100220.01;1736325;81;21780;-64
2021/12/31 05:49:01;;;;;;;35.52;21.48;;;;;;;-4.85;76.12;100220.86;1753380;81;22488;-63
2021/12/31 05:51:28;;;;;;;32.33;20.12;;;;;;;-4.85;76.12;100207.53;1758868;80;21402;-65
2021/12/31 05:53:55;;;;;;;36.53;20.70;;;;;;;-4.84;76.15;100212.24;1746723;80;21000;-64
2021/12/31 05:56:21;;;;;;;36.33;23.22;;;;;;;-4.86;76.13;100208.41;1739034;81;21094;-65
2021/12/31 05:58:48;;;;;;;36.88;21.87;;;;;;;-4.87;76.15;100214.45;1743300;80;21431;-65
2021/12/31 06:01:14;;;;;;;70.35;40.28;;;;;;;-4.88;76.19;100213.20;1743606;80;21446;-65
2021/12/31 06:03:40;;;;;;;91.72;53.52;;;;;;;-4.88;76.27;100215.77;1758459;80;20968;-66
2021/12/31 06:06:07;;;;;;;43.23;27.70;;;;;;;-4.87;76.37;100213.16;1757249;81;21489;-65
2021/12/31 06:08:34;;;;;;;37.75;23.20;;;;;;;-4.87;76.41;100209.30;1777978;79;21015;-65
2021/12/31 06:11:00;;;;;;;33.23;21.00;;;;;;;-4.84;76.55;100209.67;1745834;80;21078;-64
2021/12/31 06:13:27;;;;;;;38.95;21.33;;;;;;;-4.83;76.65;100210.92;1724835;82;21861;-64
2021/12/31 06:15:57;;;;;;;36.77;21.73;;;;;;;-4.80;76.69;100209.59;1719214;82;21069;-64
2021/12/31 06:18:22;;;;;;;31.45;19.67;;;;;;;-4.78;76.73;100203.97;1755457;80;21036;-65
2021/12/31 06:20:49;;;;;;;36.50;20.88;;;;;;;-4.76;76.78;100207.80;1740293;81;21001;-64
2021/12/31 06:23:16;;;;;;;39.88;21.52;;;;;;;-4.74;76.82;100206.03;1737853;81;21028;-65
2021/12/31 06:25:43;;;;;;;36.77;21.68;;;;;;;-4.73;76.86;100202.58;1724852;81;21787;-65
2021/12/31 06:28:10;;;;;;;34.85;20.60;;;;;;;-4.69;76.94;100199.92;1752566;81;20945;-65
2021/12/31 06:30:37;;;;;;;34.65;20.43;;;;;;;-4.64;76.98;100199.81;1743332;81;21059;-64
2021/12/31 06:33:03;;;;;;;34.67;20.68;;;;;;;-4.64;76.95;100196.80;1733361;81;21032;-66
2021/12/31 06:35:31;;;;;;;34.85;20.32;;;;;;;-4.64;76.92;100199.38;1727666;81;21440;-65
2021/12/31 06:37:58;;;;;;;37.80;21.02;;;;;;;-4.64;76.90;100197.23;1739419;81;21834;-66
2021/12/31 06:40:25;;;;;;;38.42;19.00;;;;;;;-4.63;76.94;100195.09;1755147;81;20969;-66
2021/12/31 06:42:52;;;;;;;33.13;19.60;;;;;;;-4.64;76.96;100194.22;1741228;81;20952;-65
2021/12/31 06:45:19;;;;;;;34.18;20.12;;;;;;;-4.64;76.96;100193.37;1743213;82;21005;-64
2021/12/31 06:47:45;;;;;;;35.98;21.73;;;;;;;-4.63;76.96;100192.52;1742734;82;21478;-64
2021/12/31 06:50:14;;;;;;;35.83;22.13;;;;;;;-4.63;77.00;100179.64;1730307;81;21407;-64
2021/12/31 06:52:42;;;;;;;35.92;21.40;;;;;;;-4.62;77.04;100184.75;1742037;82;21425;-64
2021/12/31 06:55:10;;;;;;;37.13;21.33;;;;;;;-4.61;77.06;100185.16;1724508;82;20973;-64
2021/12/31 06:57:37;;;;;;;34.43;20.55;;;;;;;-4.59;77.09;100180.41;1741623;82;21017;-64
2021/12/31 07:00:07;;;;;;;38.85;21.40;;;;;;;-4.58;77.16;100185.53;1698477;81;21091;-66
2021/12/31 07:02:35;;;;;;;34.92;21.15;;;;;;;-4.56;77.15;100173.89;1727288;81;20989;-66
2021/12/31 07:05:01;;;;;;;35.48;21.10;;;;;;;-4.53;77.18;100169.98;1737528;81;20987;-64
2021/12/31 07:07:29;;;;;;;35.60;20.05;;;;;;;-4.49;77.21;100179.34;1734429;81;20953;-68
2021/12/31 07:09:56;;;;;;;34.70;19.92;;;;;;;-4.46;77.22;100176.24;1732297;81;21029;-64
2021/12/31 07:12:22;;;;;;;32.95;20.35;;;;;;;-4.44;77.21;100175.80;1721910;81;21103;-65
2021/12/31 07:14:51;;;;;;;35.33;20.75;;;;;;;-4.42;77.18;100171.89;1716273;81;21408;-64
2021/12/31 07:17:18;;;;;;;35.10;20.25;;;;;;;-4.41;77.16;100178.30;1720438;81;20905;-65
2021/12/31 07:19:45;;;;;;;35.73;22.07;;;;;;;-4.40;77.17;100181.72;1742731;81;21016;-64
2021/12/31 07:22:11;;;;;;;35.03;21.15;;;;;;;-4.38;77.16;100186.39;1763563;81;21440;-66
2021/12/31 07:24:38;;;;;;;35.50;20.92;;;;;;;-4.38;77.17;100183.37;1739787;81;20983;-68
2021/12/31 07:27:04;;;;;;;33.18;20.52;;;;;;;-4.35;77.17;100181.16;1730001;81;21829;-64
2021/12/31 07:29:31;;;;;;;33.55;19.32;;;;;;;-4.33;77.17;100190.59;1744889;81;20957;-64
2021/12/31 07:31:57;;;;;;;33.40;20.45;;;;;;;-4.28;77.19;100192.20;1759629;81;20938;-64
2021/12/31 07:34:30;;;;;;;33.20;20.92;;;;;;;-4.25;77.20;100187.81;1762113;81;21091;-65
2021/12/31 07:37:00;;;;;;;34.00;20.92;;;;;;;-4.22;77.23;100181.32;1725085;81;21410;-66
2021/12/31 07:39:31;;;;;;;34.00;20.57;;;;;;;-4.19;77.27;100170.08;1720588;82;21800;-65
2021/12/31 07:41:55;;;;;;;38.33;21.60;;;;;;;-4.17;77.32;100171.73;1735025;82;21005;-64
2021/12/31 07:44:23;;;;;;;35.30;21.00;;;;;;;-4.14;77.34;100172.13;1748709;81;21023;-65
2021/12/31 07:46:49;;;;;;;35.70;22.55;;;;;;;-4.11;77.36;100171.61;1725928;81;20971;-67
2021/12/31 07:49:16;;;;;;;36.80;23.60;;;;;;;-4.04;77.43;100182.64;1758972;81;21000;-64
2021/12/31 07:51:42;;;;;;;36.17;23.57;;;;;;;-3.99;77.46;100180.79;1761385;81;21786;-63
2021/12/31 07:54:09;;;;;;;38.92;22.70;;;;;;;-3.96;77.43;100190.18;1770376;80;20941;-63
2021/12/31 07:56:37;;;;;;;37.85;23.38;;;;;;;-3.94;77.45;100191.86;1745373;80;21000;-64
2021/12/31 07:59:03;;;;;;;38.60;22.25;;;;;;;-3.90;77.44;100198.64;1744033;80;21078;-64
2021/12/31 08:01:30;;;;;;;40.80;23.98;;;;;;;-3.87;77.45;100191.27;1744675;80;21001;-64
2021/12/31 08:03:57;;;;;;;43.38;24.63;;;;;;;-3.85;77.44;100196.81;1750071;79;21829;-65
2021/12/31 08:06:24;;;;;;;40.45;23.57;;;;;;;-3.80;77.48;100191.53;1775914;80;21023;-64
2021/12/31 08:08:50;;;;;;;35.23;21.87;;;;;;;-3.77;77.50;100195.31;1745441;80;20957;-64
2021/12/31 08:11:17;;;;;;;36.13;21.05;;;;;;;-3.76;77.46;100196.59;1784990;80;20992;-64
2021/12/31 08:13:43;;;;;;;41.70;24.18;;;;;;;-3.71;77.50;100208.09;1784496;80;21048;-66
2021/12/31 08:16:10;;;;;;;38.60;23.27;;;;;;;-3.65;77.53;100199.36;1768721;80;21833;-65
2021/12/31 08:18:37;;;;;;;42.38;23.80;;;;;;;-3.63;77.54;100195.85;1741673;80;21090;-66
2021/12/31 08:21:06;;;;;;;37.33;23.57;;;;;;;-3.58;77.56;100197.86;1750902;80;21455;-65
2021/12/31 08:23:33;;;;;;;41.23;24.75;;;;;;;-3.54;77.58;100195.63;1772032;80;21069;-65
2021/12/31 08:26:01;;;;;;;40.70;24.12;;;;;;;-3.51;77.56;100196.83;1783815;79;20931;-64
2021/12/31 08:28:28;;;;;;;35.85;22.42;;;;;;;-3.50;77.50;100198.52;1752858;80;21863;-67
2021/12/31 08:30:55;;;;;;;39.80;23.40;;;;;;;-3.51;77.50;100190.38;1792346;79;20988;-65
2021/12/31 08:33:22;;;;;;;36.35;23.02;;;;;;;-3.51;77.49;100183.08;1787751;79;20952;-66
2021/12/31 08:35:49;;;;;;;39.15;23.92;;;;;;;-3.48;77.52;100184.28;1775683;79;21031;-66
2021/12/31 08:38:16;;;;;;;39.48;24.05;;;;;;;-3.47;77.55;100173.95;1729979;82;20975;-66
2021/12/31 08:40:42;;;;;;;38.05;23.55;;;;;;;-3.42;77.64;100167.36;1766323;80;21831;-66
2021/12/31 08:43:09;;;;;;;39.45;23.65;;;;;;;-3.37;77.70;100167.26;1775774;80;20929;-66
2021/12/31 08:45:36;;;;;;;41.58;24.20;;;;;;;-3.29;77.74;100170.46;1755615;81;20999;-66
2021/12/31 08:48:05;;;;;;;37.28;23.32;;;;;;;-3.23;77.73;100170.31;1776108;79;21064;-67
2021/12/31 08:50:32;;;;;;;42.65;25.77;;;;;;;-3.21;77.61;100164.66;1742375;81;21070;-65
2021/12/31 08:52:58;;;;;;;38.33;23.87;;;;;;;-3.19;77.63;100165.45;1745929;81;21810;-67
2021/12/31 08:55:25;;;;;;;44.18;26.05;;;;;;;-3.15;77.61;100171.41;1789125;79;20958;-64
2021/12/31 08:57:53;;;;;;;42.10;24.63;;;;;;;-3.14;77.57;100166.20;1778821;80;21022;-65
2021/12/31 09:00:19;;;;;;;42.43;27.15;;;;;;;-3.14;77.58;100167.48;1785786;79;20936;-67
2021/12/31 09:02:48;;;;;;;39.48;24.52;;;;;;;-3.14;77.55;100163.61;1763767;79;21429;-66
2021/12/31 09:05:15;;;;;;;39.67;23.15;;;;;;;-3.11;77.60;100167.84;1763459;81;21857;-65
2021/12/31 09:07:42;;;;;;;42.10;23.62;;;;;;;-3.08;77.65;100161.32;1794487;79;20976;-63
2021/12/31 09:10:08;;;;;;;38.08;23.52;;;;;;;-3.06;77.68;100156.51;1734584;81;21003;-64
2021/12/31 09:12:37;;;;;;;40.80;23.90;;;;;;;-3.04;77.72;100157.30;1763931;81;21003;-64
2021/12/31 09:15:05;;;;;;;37.15;22.58;;;;;;;-3.00;77.78;100143.84;1729293;83;21068;-65
2021/12/31 09:17:33;;;;;;;37.50;22.75;;;;;;;-2.97;77.82;100142.05;1744967;80;21821;-67
2021/12/31 09:20:00;;;;;;;39.03;22.55;;;;;;;-2.92;77.86;100135.00;1748980;80;20951;-66
2021/12/31 09:22:28;;;;;;;36.98;22.27;;;;;;;-2.90;77.88;100137.08;1741048;80;21067;-66
2021/12/31 09:24:55;;;;;;;37.73;23.32;;;;;;;-2.84;77.91;100133.94;1731146;82;21054;-66
2021/12/31 09:27:22;;;;;;;39.50;22.87;;;;;;;-2.82;77.92;100126.53;1730360;81;20960;-66
2021/12/31 09:29:48;;;;;;;35.38;22.65;;;;;;;-2.77;77.91;100124.68;1731093;80;22413;-66
2021/12/31 09:32:16;;;;;;;42.95;27.50;;;;;;;-2.70;77.97;100120.16;1728692;82;21052;-66
2021/12/31 09:34:44;;;;;;;43.02;25.72;;;;;;;-2.65;78.00;100111.39;1729033;82;21000;-65
2021/12/31 09:37:13;;;;;;;36.63;23.75;;;;;;;-2.60;78.01;100119.03;1744173;80;20958;-66
2021/12/31 09:39:39;;;;;;;38.42;24.12;;;;;;;-2.56;78.02;100123.20;1761302;80;20972;-65
2021/12/31 09:42:07;;;;;;;42.60;24.72;;;;;;;-2.54;78.04;100122.70;1750189;80;21827;-66
2021/12/31 09:44:35;;;;;;;44.73;27.67;;;;;;;-2.51;78.06;100109.70;1745921;80;21479;-65
2021/12/31 09:47:07;;;;;;;39.60;24.32;;;;;;;-2.47;78.13;100106.12;1729484;82;21024;-65
2021/12/31 09:49:30;;;;;;;41.35;25.72;;;;;;;-2.42;78.18;100100.79;1731071;82;21415;-65
2021/12/31 09:51:57;;;;;;;45.30;28.30;;;;;;;-2.39;78.22;100102.86;1718927;82;21071;-66
2021/12/31 09:54:23;;;;;;;40.48;24.55;;;;;;;-2.34;78.29;100097.08;1764076;80;21836;-66
2021/12/31 09:56:50;;;;;;;40.10;23.83;;;;;;;-2.30;78.38;100096.55;1772418;80;20941;-66
2021/12/31 09:59:18;;;;;;;42.90;25.48;;;;;;;-2.27;78.42;100092.56;1754680;80;20995;-65
2021/12/31 10:01:51;;;;;;;42.15;25.70;;;;;;;-2.22;78.49;100095.00;1754721;80;21028;-67
2021/12/31 10:04:18;;;;;;;45.40;29.32;;;;;;;-2.16;78.57;100091.78;1743030;79;21017;-66
2021/12/31 10:07:07;;;;;;;38.20;24.40;;;;;;;-2.10;78.62;100101.09;1741027;80;21822;-68
2021/12/31 10:09:37;;;;;;;38.08;23.25;;;;;;;-2.08;78.67;100097.56;1737076;80;21093;-65
2021/12/31 10:12:06;;;;;;;48.45;27.42;;;;;;;-2.04;78.76;100103.47;1747310;80;21031;-65
2021/12/31 10:14:39;;;;;;;39.13;24.45;;;;;;;-2.01;78.85;100113.75;1749233;80;21040;-65
2021/12/31 10:17:07;;;;;;;42.30;25.17;;;;;;;-1.96;78.98;100110.55;1732404;82;21117;-65
2021/12/31 10:19:35;;;;;;;35.28;22.17;;;;;;;-1.93;79.07;100104.00;1718989;82;20989;-66
2021/12/31 10:22:07;;;;;;;40.10;24.70;;;;;;;-1.90;79.12;100110.80;1742811;81;21028;-65
2021/12/31 10:24:38;;;;;;;40.23;24.37;;;;;;;-1.89;79.17;100099.10;1744819;80;21499;-65
2021/12/31 10:27:17;;;;;;;41.25;26.05;;;;;;;-1.85;79.23;100090.78;1771672;81;21554;-65
2021/12/31 10:30:03;;;;;;;35.03;21.95;;;;;;;-1.80;79.27;100083.72;1738212;82;21049;-67
2021/12/31 10:32:32;;;;;;;39.98;25.50;;;;;;;-1.78;79.29;100069.81;1747045;82;21859;-65
2021/12/31 10:35:15;;;;;;;42.33;25.35;;;;;;;-1.74;79.36;100061.48;1729078;82;20877;-65
2021/12/31 10:37:57;;;;;;;34.33;22.13;;;;;;;-1.70;79.43;100066.98;1728358;81;20996;-66
2021/12/31 10:40:31;;;;;;;35.43;22.77;;;;;;;-1.64;79.50;100063.31;1746299;81;21072;-65
2021/12/31 10:43:18;;;;;;;35.83;22.58;;;;;;;-1.60;79.52;100065.76;1748147;81;21066;-65
2021/12/31 10:46:02;;;;;;;37.25;23.05;;;;;;;-1.58;79.52;100069.14;1748741;81;21871;-65
2021/12/31 10:48:48;;;;;;;34.05;22.07;;;;;;;-1.53;79.55;100060.77;1732156;81;21381;-65
2021/12/31 10:51:37;;;;;;;34.67;21.12;;;;;;;-1.48;79.52;100052.38;1742601;80;21005;-66
2021/12/31 10:54:37;;;;;;;36.75;22.27;;;;;;;-1.42;79.55;100058.25;1736567;80;21522;-66
2021/12/31 10:57:00;;;;;;;33.85;21.93;;;;;;;-1.40;79.51;100067.66;1717132;83;21577;-66
2021/12/31 10:59:32;;;;;;;33.73;20.97;;;;;;;-1.37;79.46;100058.92;1717626;83;21804;-66
2021/12/31 11:01:56;;;;;;;33.30;21.80;;;;;;;-1.35;79.45;100050.64;1699879;81;21603;-66
2021/12/31 11:04:23;;;;;;;36.33;23.45;;;;;;;-1.31;79.46;100054.83;1747791;80;21476;-66
2021/12/31 11:06:50;;;;;;;34.85;22.60;;;;;;;-1.28;79.40;100061.19;1750691;80;21023;-66
2021/12/31 11:09:18;;;;;;;34.50;22.65;;;;;;;-1.26;79.37;100066.70;1744099;80;21052;-66
2021/12/31 11:11:48;;;;;;;38.20;24.20;;;;;;;-1.25;79.28;100059.34;1777562;80;21013;-67
2021/12/31 11:14:16;;;;;;;37.90;23.30;;;;;;;-1.24;79.25;100053.27;1773836;80;21044;-68
2021/12/31 11:16:43;;;;;;;36.53;24.50;;;;;;;-1.24;79.21;100057.15;1764511;80;21010;-65
2021/12/31 11:19:11;;;;;;;34.75;22.35;;;;;;;-1.21;79.19;100051.00;1753061;81;21509;-65